sensor_id;sensor_type;location;lat;lon;timestamp;temperature;humidity
19864;DHT22;10094;48.820;9.226;2023-02-27T00:03:33;-0.80;99.90
19864;DHT22;10094;48.820;9.226;2023-02-27T00:10:16;-0.70;99.90
19864;DHT22;10094;48.820;9.226;2023-02-27T00:16:59;-0.70;99.90
19864;DHT22;10094;48.820;9.226;2023-02-27T00:23:41;-1.00;99.90
19864;DHT22;10094;48.820;9.226;2023-02-27T00:30:23;-0.90;99.90
19864;DHT22;10094;48.820;9.226;2023-02-27T00:37:07;-0.80;99.90
19864;DHT22;10094;48.820;9.226;2023-02-27T00:43:49;-0.90;99.90
19864;DHT22;10094;48.820;9.226;2023-02-27T00:50:32;-0.90;99.90
19864;DHT22;10094;48.820;9.226;2023-02-27T00:57:15;-0.70;99.90
19864;DHT22;10094;48.820;9.226;2023-02-27T01:03:58;-0.90;99.90
19864;DHT22;10094;48.820;9.226;2023-02-27T01:10:40;-1.00;99.90
19864;DHT22;10094;48.820;9.226;2023-02-27T01:17:22;-1.10;99.90
19864;DHT22;10094;48.820;9.226;2023-02-27T01:24:05;-0.70;99.90
19864;DHT22;10094;48.820;9.226;2023-02-27T01:30:47;-0.70;99.90
19864;DHT22;10094;48.820;9.226;2023-02-27T01:37:30;-0.90;99.90
19864;DHT22;10094;48.820;9.226;2023-02-27T01:44:13;-1.00;99.90
19864;DHT22;10094;48.820;9.226;2023-02-27T01:51:08;-1.00;99.90
19864;DHT22;10094;48.820;9.226;2023-02-27T01:57:53;-1.00;99.90
19864;DHT22;10094;48.820;9.226;2023-02-27T02:04:38;-0.80;99.90
19864;DHT22;10094;48.820;9.226;2023-02-27T02:11:22;-1.00;99.90
19864;DHT22;10094;48.820;9.226;2023-02-27T02:18:48;-0.90;99.90
19864;DHT22;10094;48.820;9.226;2023-02-27T02:40:18;-1.00;99.90
19864;DHT22;10094;48.820;9.226;2023-02-27T02:47:42;-1.00;99.90
19864;DHT22;10094;48.820;9.226;2023-02-27T02:54:31;-1.10;99.90
19864;DHT22;10094;48.820;9.226;2023-02-27T03:01:37;-1.30;99.90
19864;DHT22;10094;48.820;9.226;2023-02-27T03:08:25;-1.10;99.90
19864;DHT22;10094;48.820;9.226;2023-02-27T03:15:20;-1.30;99.90
19864;DHT22;10094;48.820;9.226;2023-02-27T03:22:07;-1.00;99.90
19864;DHT22;10094;48.820;9.226;2023-02-27T03:28:59;-1.30;99.90
19864;DHT22;10094;48.820;9.226;2023-02-27T03:50:03;-1.30;99.90
19864;DHT22;10094;48.820;9.226;2023-02-27T04:03:38;-1.40;99.90
19864;DHT22;10094;48.820;9.226;2023-02-27T04:17:29;-1.50;99.90
19864;DHT22;10094;48.820;9.226;2023-02-27T04:31:41;-1.60;99.90
19864;DHT22;10094;48.820;9.226;2023-02-27T04:39:05;-1.60;99.90
19864;DHT22;10094;48.820;9.226;2023-02-27T04:45:39;-1.60;99.90
19864;DHT22;10094;48.820;9.226;2023-02-27T04:52:35;-1.70;99.90
19864;DHT22;10094;48.820;9.226;2023-02-27T04:59:26;-1.70;99.90
19864;DHT22;10094;48.820;9.226;2023-02-27T05:06:10;-1.70;99.90
19864;DHT22;10094;48.820;9.226;2023-02-27T05:13:04;-1.80;99.90
19864;DHT22;10094;48.820;9.226;2023-02-27T05:19:48;-1.90;99.90
19864;DHT22;10094;48.820;9.226;2023-02-27T05:33:28;-1.80;99.90
19864;DHT22;10094;48.820;9.226;2023-02-27T05:40:16;-1.80;99.90
19864;DHT22;10094;48.820;9.226;2023-02-27T05:47:07;-1.90;99.90
19864;DHT22;10094;48.820;9.226;2023-02-27T05:54:06;-2.00;99.90
19864;DHT22;10094;48.820;9.226;2023-02-27T06:00:58;-2.00;99.90
19864;DHT22;10094;48.820;9.226;2023-02-27T06:07:41;-3.00;99.90
19864;DHT22;10094;48.820;9.226;2023-02-27T06:14:23;-1.70;99.90
19864;DHT22;10094;48.820;9.226;2023-02-27T06:21:06;-2.00;99.90
19864;DHT22;10094;48.820;9.226;2023-02-27T06:27:48;-2.00;99.90
19864;DHT22;10094;48.820;9.226;2023-02-27T06:34:30;-1.90;99.90
19864;DHT22;10094;48.820;9.226;2023-02-27T06:41:13;-2.10;99.90
19864;DHT22;10094;48.820;9.226;2023-02-27T06:47:55;-1.60;99.90
19864;DHT22;10094;48.820;9.226;2023-02-27T06:54:37;-1.70;99.90
19864;DHT22;10094;48.820;9.226;2023-02-27T07:01:20;-1.60;99.90
19864;DHT22;10094;48.820;9.226;2023-02-27T07:08:02;-1.40;99.90
19864;DHT22;10094;48.820;9.226;2023-02-27T07:14:45;-1.30;99.90
19864;DHT22;10094;48.820;9.226;2023-02-27T07:21:27;-1.20;99.90
19864;DHT22;10094;48.820;9.226;2023-02-27T07:28:09;-0.60;99.90
19864;DHT22;10094;48.820;9.226;2023-02-27T07:34:52;0.30;99.90
19864;DHT22;10094;48.820;9.226;2023-02-27T07:41:34;1.90;99.90
19864;DHT22;10094;48.820;9.226;2023-02-27T07:48:19;4.00;96.30
19864;DHT22;10094;48.820;9.226;2023-02-27T07:55:01;4.60;94.60
19864;DHT22;10094;48.820;9.226;2023-02-27T08:01:44;5.50;91.60
19864;DHT22;10094;48.820;9.226;2023-02-27T08:08:26;5.40;94.90
19864;DHT22;10094;48.820;9.226;2023-02-27T08:15:09;6.70;89.00
19864;DHT22;10094;48.820;9.226;2023-02-27T08:21:52;8.40;82.10
19864;DHT22;10094;48.820;9.226;2023-02-27T08:28:34;8.50;82.10
19864;DHT22;10094;48.820;9.226;2023-02-27T08:35:16;7.60;83.20
19864;DHT22;10094;48.820;9.226;2023-02-27T08:41:59;7.40;84.30
19864;DHT22;10094;48.820;9.226;2023-02-27T08:48:41;6.80;84.60
19864;DHT22;10094;48.820;9.226;2023-02-27T08:55:23;7.00;84.40
19864;DHT22;10094;48.820;9.226;2023-02-27T09:02:06;7.70;82.20
19864;DHT22;10094;48.820;9.226;2023-02-27T09:08:48;7.60;81.50
19864;DHT22;10094;48.820;9.226;2023-02-27T09:15:31;7.40;81.70
19864;DHT22;10094;48.820;9.226;2023-02-27T09:22:16;8.00;80.90
19864;DHT22;10094;48.820;9.226;2023-02-27T09:28:58;8.00;80.20
19864;DHT22;10094;48.820;9.226;2023-02-27T09:35:40;8.70;81.50
19864;DHT22;10094;48.820;9.226;2023-02-27T09:42:27;8.10;80.40
19864;DHT22;10094;48.820;9.226;2023-02-27T09:49:16;8.70;78.90
19864;DHT22;10094;48.820;9.226;2023-02-27T09:56:30;7.20;78.30
19864;DHT22;10094;48.820;9.226;2023-02-27T10:10:17;7.10;80.50
19864;DHT22;10094;48.820;9.226;2023-02-27T10:17:05;5.20;80.70
19864;DHT22;10094;48.820;9.226;2023-02-27T10:24:20;6.00;82.90
19864;DHT22;10094;48.820;9.226;2023-02-27T10:31:18;5.70;81.40
19864;DHT22;10094;48.820;9.226;2023-02-27T10:38:15;4.90;84.50
19864;DHT22;10094;48.820;9.226;2023-02-27T10:44:59;5.20;82.80
19864;DHT22;10094;48.820;9.226;2023-02-27T10:51:42;4.80;85.30
19864;DHT22;10094;48.820;9.226;2023-02-27T10:58:29;4.70;83.70
19864;DHT22;10094;48.820;9.226;2023-02-27T11:05:30;4.50;78.30
19864;DHT22;10094;48.820;9.226;2023-02-27T11:18:58;4.60;77.30
19864;DHT22;10094;48.820;9.226;2023-02-27T11:25:42;4.80;76.90
19864;DHT22;10094;48.820;9.226;2023-02-27T11:32:35;4.80;75.40
19864;DHT22;10094;48.820;9.226;2023-02-27T11:46:09;5.00;74.60
19864;DHT22;10094;48.820;9.226;2023-02-27T12:00:19;5.40;73.10
19864;DHT22;10094;48.820;9.226;2023-02-27T12:07:28;5.90;73.90
19864;DHT22;10094;48.820;9.226;2023-02-27T12:14:22;5.80;73.50
19864;DHT22;10094;48.820;9.226;2023-02-27T12:21:11;5.80;73.60
19864;DHT22;10094;48.820;9.226;2023-02-27T12:28:05;6.40;75.90
19864;DHT22;10094;48.820;9.226;2023-02-27T12:34:51;5.40;79.60
19864;DHT22;10094;48.820;9.226;2023-02-27T12:49:11;5.60;80.30
19864;DHT22;10094;48.820;9.226;2023-02-27T12:56:02;5.20;80.40
19864;DHT22;10094;48.820;9.226;2023-02-27T13:03:03;5.00;80.00
19864;DHT22;10094;48.820;9.226;2023-02-27T13:09:52;5.30;82.00
19864;DHT22;10094;48.820;9.226;2023-02-27T13:16:40;5.50;81.20
19864;DHT22;10094;48.820;9.226;2023-02-27T13:30:27;5.00;82.50
19864;DHT22;10094;48.820;9.226;2023-02-27T13:37:12;5.00;82.30
19864;DHT22;10094;48.820;9.226;2023-02-27T13:43:55;4.90;82.90
19864;DHT22;10094;48.820;9.226;2023-02-27T13:50:48;4.90;83.90
19864;DHT22;10094;48.820;9.226;2023-02-27T13:57:32;4.60;81.30
19864;DHT22;10094;48.820;9.226;2023-02-27T14:04:17;4.60;83.30
19864;DHT22;10094;48.820;9.226;2023-02-27T14:11:25;4.50;81.30
19864;DHT22;10094;48.820;9.226;2023-02-27T14:18:44;4.80;81.90
19864;DHT22;10094;48.820;9.226;2023-02-27T14:32:31;4.70;79.90
19864;DHT22;10094;48.820;9.226;2023-02-27T14:39:20;4.40;78.50
19864;DHT22;10094;48.820;9.226;2023-02-27T14:46:22;4.20;79.70
19864;DHT22;10094;48.820;9.226;2023-02-27T14:53:06;4.40;80.10
19864;DHT22;10094;48.820;9.226;2023-02-27T14:59:50;4.50;78.50
19864;DHT22;10094;48.820;9.226;2023-02-27T15:06:39;4.30;79.20
19864;DHT22;10094;48.820;9.226;2023-02-27T15:13:32;4.40;79.70
19864;DHT22;10094;48.820;9.226;2023-02-27T15:20:35;4.40;80.00
19864;DHT22;10094;48.820;9.226;2023-02-27T15:27:20;3.90;80.60
19864;DHT22;10094;48.820;9.226;2023-02-27T15:34:03;3.90;80.80
19864;DHT22;10094;48.820;9.226;2023-02-27T15:40:52;4.00;81.30
19864;DHT22;10094;48.820;9.226;2023-02-27T15:47:36;4.10;78.70
19864;DHT22;10094;48.820;9.226;2023-02-27T15:54:21;4.10;79.50
19864;DHT22;10094;48.820;9.226;2023-02-27T16:01:12;3.90;79.20
19864;DHT22;10094;48.820;9.226;2023-02-27T16:07:56;3.80;79.20
19864;DHT22;10094;48.820;9.226;2023-02-27T16:14:43;3.60;80.90
19864;DHT22;10094;48.820;9.226;2023-02-27T16:21:27;3.70;82.00
19864;DHT22;10094;48.820;9.226;2023-02-27T16:28:13;3.50;82.40
19864;DHT22;10094;48.820;9.226;2023-02-27T16:35:07;3.30;82.40
19864;DHT22;10094;48.820;9.226;2023-02-27T16:41:57;3.40;83.20
19864;DHT22;10094;48.820;9.226;2023-02-27T16:48:40;3.30;80.10
19864;DHT22;10094;48.820;9.226;2023-02-27T16:55:23;3.30;80.10
19864;DHT22;10094;48.820;9.226;2023-02-27T17:02:11;3.30;80.10
19864;DHT22;10094;48.820;9.226;2023-02-27T17:08:54;3.10;81.10
19864;DHT22;10094;48.820;9.226;2023-02-27T17:15:37;3.20;81.20
19864;DHT22;10094;48.820;9.226;2023-02-27T17:22:19;3.20;81.80
19864;DHT22;10094;48.820;9.226;2023-02-27T17:29:02;3.10;83.10
19864;DHT22;10094;48.820;9.226;2023-02-27T17:35:44;3.10;83.60
19864;DHT22;10094;48.820;9.226;2023-02-27T17:42:27;3.20;84.10
19864;DHT22;10094;48.820;9.226;2023-02-27T17:49:09;3.00;84.30
19864;DHT22;10094;48.820;9.226;2023-02-27T17:55:51;2.90;85.40
19864;DHT22;10094;48.820;9.226;2023-02-27T18:02:35;2.80;84.50
19864;DHT22;10094;48.820;9.226;2023-02-27T18:09:17;2.80;85.30
19864;DHT22;10094;48.820;9.226;2023-02-27T18:16:00;2.70;84.60
19864;DHT22;10094;48.820;9.226;2023-02-27T18:22:42;2.60;86.00
19864;DHT22;10094;48.820;9.226;2023-02-27T18:29:24;2.60;86.70
19864;DHT22;10094;48.820;9.226;2023-02-27T18:56:21;2.70;87.10
19864;DHT22;10094;48.820;9.226;2023-02-27T19:29:55;2.50;88.60
19864;DHT22;10094;48.820;9.226;2023-02-27T19:36:37;1.80;90.40
19864;DHT22;10094;48.820;9.226;2023-02-27T19:50:04;1.60;87.80
19864;DHT22;10094;48.820;9.226;2023-02-27T19:56:46;1.30;89.60
19864;DHT22;10094;48.820;9.226;2023-02-27T20:03:29;1.20;89.60
19864;DHT22;10094;48.820;9.226;2023-02-27T20:10:11;1.10;90.20
19864;DHT22;10094;48.820;9.226;2023-02-27T20:16:54;1.00;90.50
19864;DHT22;10094;48.820;9.226;2023-02-27T20:23:38;0.80;90.40
19864;DHT22;10094;48.820;9.226;2023-02-27T20:30:21;0.80;91.20
19864;DHT22;10094;48.820;9.226;2023-02-27T20:37:03;0.70;91.10
19864;DHT22;10094;48.820;9.226;2023-02-27T20:43:48;0.60;91.40
19864;DHT22;10094;48.820;9.226;2023-02-27T20:50:30;0.60;91.80
19864;DHT22;10094;48.820;9.226;2023-02-27T20:57:13;0.40;92.30
19864;DHT22;10094;48.820;9.226;2023-02-27T21:03:56;0.60;92.50
19864;DHT22;10094;48.820;9.226;2023-02-27T21:10:39;0.60;92.20
19864;DHT22;10094;48.820;9.226;2023-02-27T21:17:21;0.70;91.80
19864;DHT22;10094;48.820;9.226;2023-02-27T21:24:06;0.80;92.10
19864;DHT22;10094;48.820;9.226;2023-02-27T21:30:48;0.80;91.90
19864;DHT22;10094;48.820;9.226;2023-02-27T21:37:35;0.80;91.70
19864;DHT22;10094;48.820;9.226;2023-02-27T21:44:19;0.90;91.90
19864;DHT22;10094;48.820;9.226;2023-02-27T21:51:02;0.90;92.30
19864;DHT22;10094;48.820;9.226;2023-02-27T21:57:45;0.90;92.20
19864;DHT22;10094;48.820;9.226;2023-02-27T22:04:27;0.90;92.30
19864;DHT22;10094;48.820;9.226;2023-02-27T22:11:10;0.70;92.40
19864;DHT22;10094;48.820;9.226;2023-02-27T22:17:52;0.70;92.70
19864;DHT22;10094;48.820;9.226;2023-02-27T22:24:35;0.60;92.70
19864;DHT22;10094;48.820;9.226;2023-02-27T22:31:20;0.40;93.70
19864;DHT22;10094;48.820;9.226;2023-02-27T22:38:03;0.20;94.10
19864;DHT22;10094;48.820;9.226;2023-02-27T22:44:45;0.10;95.40
19864;DHT22;10094;48.820;9.226;2023-02-27T22:51:28;-0.10;96.80
19864;DHT22;10094;48.820;9.226;2023-02-27T22:58:11;-0.10;95.60
19864;DHT22;10094;48.820;9.226;2023-02-27T23:25:01;-0.10;96.20
19864;DHT22;10094;48.820;9.226;2023-02-27T23:31:48;-0.30;99.00
19864;DHT22;10094;48.820;9.226;2023-02-27T23:38:30;-0.50;99.60
19864;DHT22;10094;48.820;9.226;2023-02-27T23:45:13;-0.50;99.30
19864;DHT22;10094;48.820;9.226;2023-02-27T23:52:04;-0.50;99.90
19864;DHT22;10094;48.820;9.226;2023-02-27T23:58:51;-0.50;99.90
